Latest Weather Observations for Murrurundi Gap

IDN60801

Issued at 12:05 am EST Thursday 21 August 2014 (issued every 30 minutes, with the page automatically refreshed every 10 minutes)

About weather observations | Map of weather stations | Latest weather observations for NSW | Other Formats
Station Details ID: 061392 Name: MURRURUNDI GAP AWS Lat: -31.74 Lon: 150.79 Height: 729.4 m
Data from the previous 72 hours. | See also: Recent months for locations in New South Wales
Date/Time
EST
Temp
°C
App
Temp
°C
Dew
Point
Rel
Hum
%
Delta-T
°C
Wind Press
QNH
hPa
Press
MSL
hPa
Rain
since 9 am
mm
Dir
 
Spd
km/h
Gust
km/h
Spd
kts
Gust
kts
21/12:00am 7.6 0.7 6.4 92 0.6 ESE 32 37 17 20 1025.1 1024.9 0.0
 
Date/Time
EST
Temp
°C
App
Temp
°C
Dew
Point
Rel
Hum
%
Delta-T
°C
Wind Press
QNH
hPa
Press
MSL
hPa
Rain
since 9 am
mm
Dir
 
Spd
km/h
Gust
km/h
Spd
kts
Gust
kts
20/11:30pm 7.6 1.1 6.4 92 0.6 ESE 30 37 16 20 1025.1 - 0.0
20/11:08pm 7.7 0.7 6.2 90 0.7 ESE 32 43 17 23 1025.2 - 0.0
20/11:00pm 7.9 0.3 6.0 88 0.9 SE 35 46 19 25 1025.1 1024.9 0.0
20/10:30pm 8.0 0.9 5.5 84 1.2 SE 32 44 17 24 1025.1 - 0.0
20/10:00pm 7.6 0.4 5.2 85 1.1 SE 32 39 17 21 1024.9 1024.7 0.0
20/09:30pm 8.5 -0.1 4.9 78 1.7 SE 39 54 21 29 1024.7 - 0.0
20/09:00pm 8.2 0.5 5.3 82 1.3 SE 35 46 19 25 1024.8 1024.6 0.0
20/08:30pm 7.9 0.2 5.2 83 1.3 SE 35 44 19 24 1024.7 - 0.0
20/08:02pm 8.4 -0.2 4.6 77 1.8 SE 39 57 21 31 1024.2 - 0.0
20/08:00pm 8.4 -0.6 4.6 77 1.7 SE 41 57 22 31 1024.2 1024.1 0.0
20/07:54pm 8.4 -0.2 4.8 78 1.7 SE 39 57 21 31 1024.0 - 0.0
20/07:30pm 8.0 0.8 5.8 86 1.0 SE 33 43 18 23 1024.1 - 0.0
20/07:00pm 8.7 1.4 5.6 81 1.5 SE 33 43 18 23 1023.8 1023.6 0.0
20/06:30pm 9.1 2.4 5.7 79 1.6 SE 30 44 16 24 1023.6 - 0.0
20/06:00pm 9.2 2.7 4.8 74 2.0 SE 28 37 15 20 1023.4 1023.2 0.0
20/05:30pm 9.6 2.8 5.2 74 2.1 SSE 30 37 16 20 1022.9 - 0.0
20/05:00pm 10.3 3.4 4.5 67 2.7 SE 30 41 16 22 1022.6 1022.4 0.0
20/04:45pm 10.8 2.7 3.1 59 3.5 SE 35 54 19 29 1022.4 - 0.0
20/04:30pm 11.1 3.5 2.7 56 3.8 SE 32 46 17 25 1022.2 - 0.0
20/04:00pm 11.6 3.3 2.1 52 4.2 SE 35 50 19 27 1022.0 1021.8 0.0
20/03:30pm 11.6 3.9 3.4 57 3.8 SSE 33 44 18 24 1022.0 - 0.0
20/03:00pm 12.0 4.9 3.8 57 3.8 SE 30 41 16 22 1022.0 1021.8 0.0
20/02:30pm 11.8 4.4 4.1 59 3.6 SSE 32 43 17 23 1022.0 - 0.0
20/02:00pm 12.1 4.9 4.8 61 3.5 SE 32 39 17 21 1022.1 1021.9 0.0
20/01:30pm 11.4 4.3 3.4 58 3.7 SE 30 39 16 21 1022.2 - 0.0
20/01:02pm 11.5 4.7 3.3 57 3.8 SE 28 46 15 25 1022.3 - 0.0
20/01:00pm 12.1 5.6 4.6 60 3.5 SE 28 39 15 21 1022.4 1022.2 0.0
20/12:30pm 10.5 3.6 4.6 67 2.8 SE 30 43 16 23 1022.9 - 0.0
20/12:00pm 10.7 3.5 5.0 68 2.7 SE 32 46 17 25 1023.3 1023.1 0.0
20/11:50am 10.3 2.3 4.0 65 2.9 SE 35 54 19 29 1022.9 - 0.0
20/11:30am 10.0 2.1 4.4 68 2.6 SSE 35 50 19 27 1023.2 - 0.0
20/11:00am 10.2 1.6 4.8 69 2.5 SE 39 52 21 28 1023.4 1023.2 0.0
20/10:30am 9.4 0.8 4.8 73 2.1 SE 39 54 21 29 1023.5 - 0.0
20/10:00am 8.9 -0.1 4.7 75 1.9 ESE 41 50 22 27 1023.4 1023.2 0.0
20/09:30am 8.7 0.1 4.7 76 1.9 SE 39 50 21 27 1023.3 - 0.0
20/09:00am 7.1 -1.2 4.1 81 1.3 SE 37 48 20 26 1022.9 1022.7 1.8
20/08:30am 6.9 -1.5 3.5 79 1.5 SE 37 46 20 25 1022.9 - 1.8
20/08:00am 6.6 -1.9 3.4 80 1.4 SE 37 48 20 26 1022.5 1022.3 1.8
20/07:47am 6.8 -2.0 3.6 80 1.4 SE 39 57 21 31 1022.3 - 1.8
20/07:30am 6.6 -3.0 3.6 81 1.3 SE 43 54 23 29 1021.8 - 1.8
20/07:00am 5.9 -5.1 3.2 83 1.2 SE 50 61 27 33 1021.0 1020.8 1.8
20/06:30am 5.9 -4.3 3.4 84 1.1 SE 46 57 25 31 1021.0 - 1.8
20/06:00am 6.0 -4.1 3.5 84 1.1 SE 46 57 25 31 1020.8 1020.6 1.8
20/05:30am 6.3 -3.8 3.5 82 1.2 SE 46 59 25 32 1020.6 - 1.8
20/05:00am 6.3 -3.4 4.0 85 1.0 SE 44 56 24 30 1020.4 1020.1 1.8
20/04:30am 6.4 -3.1 4.1 85 1.0 SSE 43 54 23 29 1020.2 - 1.8
20/04:00am 6.4 -2.7 4.1 85 1.0 SSE 41 56 22 30 1019.8 1019.6 1.8
20/03:30am 6.3 -3.1 4.3 87 0.9 SE 43 61 23 33 1019.5 - 1.8
20/03:00am 6.8 -5.2 4.5 85 1.0 SSE 57 76 31 41 1018.4 1018.2 1.8
20/02:30am 6.9 -5.5 4.4 84 1.1 SSE 59 70 32 38 1018.5 - 1.8
20/02:00am 7.1 -4.0 4.4 83 1.2 SSE 52 61 28 33 1019.5 1019.3 1.8
20/01:30am 7.2 -1.8 4.5 83 1.2 SE 41 52 22 28 1020.0 - 1.8
20/01:00am 7.2 -0.3 4.7 84 1.1 SE 33 44 18 24 1020.3 1020.0 1.8
20/12:30am 7.3 -0.9 4.8 84 1.1 SE 37 48 20 26 1020.4 - 1.8
20/12:09am 7.5 -0.3 4.8 83 1.2 SE 35 54 19 29 1020.3 - 1.8
20/12:00am 7.5 -0.3 5.0 84 1.2 SSE 35 52 19 28 1020.4 1020.1 1.8
 
Date/Time
EST
Temp
°C
App
Temp
°C
Dew
Point
Rel
Hum
%
Delta-T
°C
Wind Press
QNH
hPa
Press
MSL
hPa
Rain
since 9 am
mm
Dir
 
Spd
km/h
Gust
km/h
Spd
kts
Gust
kts
19/11:30pm 7.5 -0.5 5.6 88 0.9 SSE 37 50 20 27 1020.6 - 1.6
19/11:21pm 7.5 -0.1 5.8 89 0.8 SSE 35 46 19 25 1020.6 - 1.6
19/11:00pm 7.3 -1.0 6.1 92 0.6 SSE 39 56 21 30 1020.5 1020.2 1.6
19/10:48pm 7.6 -0.7 6.2 91 0.7 SSE 39 61 21 33 1020.4 - 1.6
19/10:42pm 7.8 -0.5 6.3 90 0.7 SSE 39 61 21 33 1020.0 - 1.6
19/10:30pm 8.0 -0.7 6.1 88 0.9 SSE 41 54 22 29 1019.9 - 1.6
19/10:05pm 8.4 -0.6 6.2 86 1.1 SSE 43 69 23 37 1019.7 - 1.6
19/10:00pm 8.3 -0.8 6.1 86 1.0 SSE 43 57 23 31 1020.0 1019.8 1.6
19/09:54pm 8.1 -0.9 6.4 89 0.8 SSE 43 54 23 29 1020.0 - 1.6
19/09:33pm 8.1 -0.5 6.4 89 0.8 SSE 41 57 22 31 1020.0 - 1.6
19/09:30pm 8.3 0.0 6.3 87 1.0 SSE 39 57 21 31 1020.0 - 1.6
19/09:29pm 8.2 -0.1 6.3 88 0.9 SSE 39 57 21 31 1020.2 - 1.6
19/09:27pm 8.3 -0.3 6.3 87 1.0 SSE 41 57 22 31 1020.3 - 1.6
19/09:00pm 8.5 -0.2 6.0 84 1.2 SSE 41 63 22 34 1020.0 1019.8 1.6
19/08:38pm 8.4 -0.8 6.2 86 1.1 SSE 44 63 24 34 1019.8 - 1.6
19/08:30pm 8.5 -1.5 6.1 85 1.1 SSE 48 61 26 33 1019.6 - 1.6
19/08:03pm 8.7 -0.6 6.0 83 1.3 SSE 44 67 24 36 1019.0 - 1.6
19/08:00pm 8.7 0.0 6.0 83 1.3 SSE 41 56 22 30 1019.3 1019.0 1.6
19/07:38pm 8.7 1.4 7.0 89 0.8 SSE 35 54 19 29 1019.4 - 1.6
19/07:30pm 8.9 1.2 6.9 87 1.0 SE 37 54 20 29 1019.2 - 1.6
19/07:07pm 9.1 1.6 6.5 84 1.3 SE 35 56 19 30 1018.7 - 1.6
19/07:00pm 8.8 1.7 6.6 86 1.1 SE 33 50 18 27 1018.8 1018.5 1.6
19/06:30pm 9.0 0.4 6.6 85 1.2 SE 41 63 22 34 1018.2 - 1.6
19/06:21pm 8.7 1.7 7.0 89 0.8 SSE 33 59 18 32 1018.1 - 1.6
19/06:06pm 8.2 1.4 6.7 90 0.7 SSE 32 43 17 23 1018.3 - 1.6
19/06:00pm 8.0 0.6 6.8 92 0.6 SSE 35 61 19 33 1018.2 1017.9 1.6
19/05:40pm 8.5 0.4 7.0 90 0.7 SSE 39 57 21 31 1017.9 - 1.6
19/05:30pm 8.5 1.2 7.1 91 0.7 SE 35 52 19 28 1018.0 - 1.4
19/05:27pm 8.6 0.5 7.1 90 0.7 SE 39 52 21 28 1017.8 - 1.4
19/05:00pm 9.5 1.5 5.9 78 1.7 SE 37 50 20 27 1017.0 1016.7 1.4
19/04:30pm 10.8 4.7 6.6 75 2.1 SE 28 41 15 22 1016.8 - 1.4
19/04:00pm 11.2 5.8 6.5 73 2.3 SSE 24 35 13 19 1016.6 1016.3 1.4
19/03:30pm 11.8 6.6 7.1 73 2.3 SSE 24 32 13 17 1016.1 - 1.4
19/03:00pm 10.9 5.5 7.8 81 1.6 SE 26 33 14 18 1016.1 1015.8 1.4
19/02:30pm 11.1 3.6 8.0 81 1.6 SSE 37 50 20 27 1015.8 - 1.4
19/02:00pm 10.2 3.0 7.8 85 1.2 SSE 35 48 19 26 1015.4 1015.1 1.4
19/01:35pm 9.3 3.4 7.4 88 0.9 SSE 28 46 15 25 1015.5 - 1.4
19/01:30pm 10.1 4.2 7.7 85 1.2 SE 28 37 15 20 1015.3 - 1.4
19/01:27pm 10.3 4.8 7.7 84 1.3 SE 26 37 14 20 1015.1 - 1.4
19/01:00pm 9.5 3.0 8.3 92 0.6 SSE 32 50 17 27 1015.2 1014.9 1.4
19/12:59pm 9.6 3.1 8.2 91 0.7 SSE 32 50 17 27 1015.1 - 1.4
19/12:36pm 9.0 1.9 8.2 95 0.4 SSE 35 48 19 26 1015.1 - 1.4
19/12:30pm 8.9 1.1 8.1 95 0.4 SSE 39 54 21 29 1015.1 - 1.4
19/12:18pm 8.9 3.2 8.5 97 0.2 SSE 28 46 15 25 1015.2 - 1.2
19/12:12pm 9.0 3.3 8.4 96 0.3 SSE 28 44 15 24 1015.3 - 1.0
19/12:00pm 9.4 3.9 9.3 99 0.1 SE 28 35 15 19 1015.2 1014.9 1.0
19/11:58am 9.1 3.5 8.8 98 0.2 SE 28 35 15 19 1015.2 - 1.0
19/11:36am 8.7 2.7 8.6 99 0.1 SE 30 50 16 27 1015.4 - 1.0
19/11:30am 8.7 3.1 8.6 99 0.1 SSE 28 41 15 22 1015.6 - 0.8
19/11:00am 8.6 2.1 8.2 97 0.2 SSE 32 44 17 24 1015.8 1015.4 0.6
19/10:35am 8.6 1.9 8.0 96 0.3 SSE 33 56 18 30 1015.8 - 0.2
19/10:34am 8.6 1.9 8.0 96 0.3 SSE 33 56 18 30 1015.9 - 0.2
19/10:30am 8.7 1.2 7.9 95 0.4 SSE 37 56 20 30 1015.6 - 0.2
19/10:26am 8.7 1.6 8.1 96 0.3 SSE 35 54 19 29 1015.5 - 0.2
19/10:22am 8.8 2.0 7.9 94 0.4 SSE 33 46 18 25 1015.8 - 0.2
19/10:18am 8.7 1.9 7.9 95 0.4 SSE 33 46 18 25 1015.5 - 0.2
19/10:00am 8.3 1.2 7.9 97 0.2 SSE 35 52 19 28 1015.6 1015.3 0.2
19/09:39am 8.5 1.7 7.7 95 0.4 SSE 33 44 18 24 1015.5 - 0.0
19/09:30am 8.5 1.7 7.9 96 0.3 SSE 33 57 18 31 1015.6 - 0.0
19/09:25am 8.7 2.2 8.1 96 0.3 SSE 32 57 17 31 1015.3 - 0.0
19/09:24am 8.4 1.9 8.0 97 0.2 SSE 32 48 17 26 1015.4 - 0.0
19/09:15am 8.3 2.1 8.0 98 0.1 SSE 30 48 16 26 1015.4 - 0.0
19/09:00am 8.3 2.9 8.2 99 0.0 SE 26 39 14 21 1015.5 1015.2 9.0
19/08:30am 8.1 3.8 8.0 99 0.0 SE 20 30 11 16 1015.2 - 8.8
19/08:00am 7.8 3.5 7.7 99 0.0 SE 20 32 11 17 1014.7 1014.3 8.8
19/07:30am 7.7 3.9 7.6 99 0.0 SE 17 26 9 14 1014.6 - 8.6
19/07:00am 7.6 4.6 7.5 99 0.0 SE 13 20 7 11 1014.4 1014.0 8.6
19/06:30am 7.5 5.6 7.4 99 0.0 ESE 7 11 4 6 1013.8 - 8.6
19/06:03am 7.6 5.6 7.3 98 0.1 SE 7 13 4 7 1013.5 - 8.4
19/06:00am 7.7 5.8 7.4 98 0.1 ESE 7 13 4 7 1013.5 1013.1 8.4
19/05:46am 7.7 5.7 7.3 97 0.2 SE 7 11 4 6 1013.4 - 8.2
19/05:41am 7.6 6.6 7.2 97 0.2 ESE 2 11 1 6 1013.4 - 8.2
19/05:36am 7.6 6.6 7.2 97 0.2 NNE 2 7 1 4 1013.4 - 8.2
19/05:30am 7.5 6.5 7.2 98 0.1 NNE 2 7 1 4 1013.4 - 8.2
19/05:18am 7.4 5.4 7.3 99 0.0 WNW 7 11 4 6 1013.3 - 8.0
19/05:14am 7.4 5.4 7.3 99 0.0 WNW 7 11 4 6 1013.3 - 8.0
19/05:00am 7.5 5.5 7.2 98 0.1 N 7 11 4 6 1013.1 1012.7 7.8
19/04:30am 7.5 5.1 7.1 97 0.2 NW 9 13 5 7 1012.9 - 7.8
19/04:00am 7.2 4.8 7.1 99 0.0 NW 9 13 5 7 1012.5 1012.2 7.8
19/03:30am 7.5 5.5 6.9 96 0.3 NNW 7 9 4 5 1012.5 - 7.8
19/03:00am 7.8 4.9 6.7 93 0.5 WNW 11 13 6 7 1012.4 1012.1 7.8
19/02:30am 7.8 5.8 6.9 94 0.4 WNW 7 9 4 5 1012.4 - 7.8
19/02:00am 7.9 6.0 6.8 93 0.5 WNW 6 7 3 4 1012.5 1012.2 7.8
19/01:30am 8.0 5.9 6.6 91 0.7 ESE 7 13 4 7 1012.6 - 7.8
19/01:00am 8.1 5.6 6.7 91 0.7 N 9 9 5 5 1012.4 1012.1 7.6
19/12:30am 8.1 5.7 6.9 92 0.6 NW 9 13 5 7 1012.2 - 7.6
19/12:00am 8.6 5.7 6.6 87 1.0 NW 11 15 6 8 1012.2 1011.8 7.4
 
Date/Time
EST
Temp
°C
App
Temp
°C
Dew
Point
Rel
Hum
%
Delta-T
°C
Wind Press
QNH
hPa
Press
MSL
hPa
Rain
since 9 am
mm
Dir
 
Spd
km/h
Gust
km/h
Spd
kts
Gust
kts
18/11:30pm 9.3 4.8 6.0 80 1.6 W 19 28 10 15 1012.1 - 7.2
18/11:00pm 9.4 5.6 5.9 79 1.7 WNW 15 24 8 13 1012.1 1011.7 7.2
18/10:30pm 9.3 6.1 6.9 85 1.2 WNW 13 20 7 11 1012.1 - 7.2
18/10:00pm 8.9 5.7 8.6 98 0.2 WNW 15 24 8 13 1011.9 1011.5 7.2
18/09:30pm 8.2 5.3 8.1 99 0.0 WNW 13 24 7 13 1011.8 - 7.2
18/09:26pm 8.2 5.3 8.1 99 0.0 NW 13 20 7 11 1011.7 - 7.2
18/09:05pm 8.8 5.7 8.7 99 0.1 NW 15 22 8 12 1011.7 - 7.2
18/09:00pm 8.9 5.0 8.8 99 0.1 NW 19 22 10 12 1011.6 1011.2 7.2
18/08:30pm 9.1 5.1 9.0 99 0.1 NW 20 32 11 17 1011.6 - 7.0
18/08:00pm 8.9 5.8 8.8 99 0.1 NW 15 19 8 10 1011.4 1011.0 7.0
18/07:56pm 8.9 5.4 8.8 99 0.1 NW 17 20 9 11 1011.2 - 7.0
18/07:30pm 9.0 5.9 8.9 99 0.1 NW 15 20 8 11 1010.9 - 7.0
18/07:23pm 9.0 5.9 8.9 99 0.1 NW 15 19 8 10 1010.8 - 7.0
18/07:12pm 9.0 5.5 8.9 99 0.1 NW 17 19 9 10 1010.7 - 7.0
18/07:04pm 9.0 5.9 8.9 99 0.1 NW 15 19 8 10 1010.6 - 7.0
18/07:00pm 9.1 6.0 9.0 99 0.1 NW 15 20 8 11 1010.7 1010.3 6.8
18/06:30pm 9.0 5.2 8.9 99 0.1 NW 19 22 10 12 1010.3 - 6.8
18/06:13pm 9.2 5.4 9.1 99 0.1 NW 19 20 10 11 1010.0 - 6.8
18/06:00pm 9.2 5.8 9.1 99 0.1 NW 17 20 9 11 1009.7 1009.3 6.8
18/05:37pm 9.2 7.9 9.1 99 0.1 NNW 6 7 3 4 1009.5 - 6.8
18/05:30pm 9.2 7.3 9.1 99 0.1 NNW 9 13 5 7 1009.4 - 6.6
18/05:18pm 9.3 6.7 9.2 99 0.1 NNW 13 17 7 9 1009.2 - 6.6
18/05:13pm 9.3 6.7 9.2 99 0.1 NNW 13 17 7 9 1009.1 - 6.6
18/05:00pm 9.3 6.7 9.2 99 0.1 NW 13 17 7 9 1009.1 1008.7 6.6
18/04:36pm 9.2 6.9 9.1 99 0.1 NW 11 13 6 7 1008.8 - 6.6
18/04:30pm 9.3 6.7 9.2 99 0.1 NW 13 15 7 8 1008.8 - 6.4
18/04:00pm 9.2 5.8 9.1 99 0.1 NW 17 20 9 11 1008.3 1007.9 6.0
18/03:51pm 9.1 5.3 9.0 99 0.1 NNW 19 24 10 13 1008.1 - 5.8
18/03:30pm 9.3 7.4 9.2 99 0.1 NW 9 13 5 7 1007.8 - 5.8
18/03:25pm 9.3 7.1 9.2 99 0.1 NNW 11 13 6 7 1007.8 - 5.8
18/03:00pm 9.2 6.2 9.1 99 0.1 NW 15 20 8 11 1007.6 1007.1 5.6
18/02:30pm 8.9 5.8 8.8 99 0.1 NW 15 20 8 11 1007.2 - 5.4
18/02:00pm 8.8 5.7 8.7 99 0.1 NW 15 19 8 10 1006.7 1006.3 5.2
18/01:30pm 8.4 4.4 8.3 99 0.1 WNW 19 28 10 15 1006.4 - 5.0
18/01:00pm 8.2 4.2 8.1 99 0.1 NNW 19 24 10 13 1006.0 1005.5 5.0
18/12:30pm 8.0 3.7 7.9 99 0.0 NW 20 28 11 15 1006.2 - 4.6
18/12:00pm 7.7 1.4 7.6 99 0.0 NW 30 41 16 22 1006.0 1005.5 3.8
18/11:30am 7.7 1.4 7.6 99 0.0 NW 30 39 16 21 1006.3 - 3.0
18/11:00am 7.3 0.6 7.2 99 0.0 NW 32 39 17 21 1006.4 1006.0 2.2
18/10:31am 7.0 0.2 6.9 99 0.0 NNW 32 50 17 27 1006.4 - 1.0
18/10:30am 6.9 -0.1 6.8 99 0.0 NNW 33 50 18 27 1006.3 - 1.0
18/10:00am 6.5 -1.7 6.4 99 0.0 NNW 39 50 21 27 1006.1 1005.6 0.4
18/09:30am 6.2 -3.1 6.1 99 0.0 NNW 44 57 24 31 1005.8 - 0.4
18/09:00am 6.1 -2.6 6.0 99 0.0 NNW 41 52 22 28 1005.7 1005.2 6.2
18/08:30am 5.9 -3.2 5.8 99 0.0 NNW 43 52 23 28 1005.7 - 5.8
18/08:00am 5.8 -2.6 5.7 99 0.0 NNW 39 54 21 29 1005.9 1005.4 5.4
18/07:30am 5.7 -3.7 5.6 99 0.0 NW 44 54 24 29 1005.6 - 5.0
18/07:00am 5.7 -3.5 5.6 99 0.0 NNW 43 54 23 29 1005.5 1005.0 4.6
18/06:30am 5.7 -2.7 5.6 99 0.0 NNW 39 48 21 26 1005.5 - 4.2
18/06:00am 5.6 -3.6 5.5 99 0.0 NNW 43 54 23 29 1004.8 1004.3 4.0
18/05:30am 5.5 -2.2 5.4 99 0.0 NNW 35 43 19 23 1005.0 - 4.0
18/05:00am 5.5 -1.8 5.4 99 0.0 NNW 33 46 18 25 1005.0 1004.5 4.0
18/04:30am 5.7 -1.9 5.6 99 0.0 NNW 35 46 19 25 1004.9 - 4.0
18/04:00am 5.8 -1.4 5.7 99 0.0 NNW 33 39 18 21 1004.9 1004.4 4.0
18/03:30am 5.9 -1.1 5.8 99 0.0 NNW 32 43 17 23 1005.2 - 3.8
18/03:00am 6.0 0.1 5.9 99 0.0 NNW 26 35 14 19 1005.6 1005.1 3.8
18/02:30am 6.1 0.6 6.0 99 0.0 NNW 24 28 13 15 1005.8 - 3.8
18/02:17am 6.1 1.4 6.0 99 0.0 N 20 28 11 15 1005.9 - 3.8
18/02:00am 6.1 1.6 6.0 99 0.0 N 19 26 10 14 1006.2 1005.7 3.8
18/01:53am 6.0 1.8 5.9 99 0.0 N 17 22 9 12 1006.2 - 3.8
18/01:31am 6.1 2.0 6.0 99 0.0 N 17 20 9 11 1006.4 - 3.8
18/01:30am 6.1 1.6 6.0 99 0.0 N 19 20 10 11 1006.4 - 3.8
18/01:27am 6.1 1.6 6.0 99 0.0 N 19 20 10 11 1006.4 - 3.8
18/01:00am 6.4 1.4 6.3 99 0.0 NW 22 32 12 17 1006.6 1006.2 3.6
18/12:30am 6.0 1.3 5.9 99 0.0 NW 20 28 11 15 1006.7 - 3.0
18/12:20am 6.1 1.0 6.0 99 0.0 NW 22 30 12 16 1006.6 - 2.0
18/12:09am 6.1 0.2 6.0 99 0.0 NNW 26 30 14 16 1006.6 - 1.6

Other Formats:

Comma delimited format used in spreadsheet applications
http://www.bom.gov.au/fwo/IDN60801/IDN60801.95747.axf

JavaScript Object Notation format (JSON) in row-major order
http://www.bom.gov.au/fwo/IDN60801/IDN60801.95747.json